sensor_id;sensor_type;location;lat;lon;timestamp;P1;durP1;ratioP1;P2;durP2;ratioP2
60718;SDS011;46567;51.660;5.824;2023-11-18T00:02:04;23.7;;;11.0;;
60718;SDS011;46567;51.660;5.824;2023-11-18T00:07:04;16.5;;;7.9;;
60718;SDS011;46567;51.660;5.824;2023-11-18T00:12:04;21.0;;;9.0;;
60718;SDS011;46567;51.660;5.824;2023-11-18T00:17:04;22.0;;;8.5;;
60718;SDS011;46567;51.660;5.824;2023-11-18T00:22:04;18.7;;;7.5;;
60718;SDS011;46567;51.660;5.824;2023-11-18T00:27:04;18.9;;;7.9;;
60718;SDS011;46567;51.660;5.824;2023-11-18T00:32:04;15.8;;;6.8;;
60718;SDS011;46567;51.660;5.824;2023-11-18T00:37:04;16.5;;;7.2;;
60718;SDS011;46567;51.660;5.824;2023-11-18T00:42:04;13.2;;;6.0;;
60718;SDS011;46567;51.660;5.824;2023-11-18T00:47:04;13.8;;;6.4;;
60718;SDS011;46567;51.660;5.824;2023-11-18T00:52:04;16.2;;;6.9;;
60718;SDS011;46567;51.660;5.824;2023-11-18T00:57:04;12.5;;;6.1;;
60718;SDS011;46567;51.660;5.824;2023-11-18T01:02:04;15.3;;;6.3;;
60718;SDS011;46567;51.660;5.824;2023-11-18T01:07:04;13.8;;;6.4;;
60718;SDS011;46567;51.660;5.824;2023-11-18T01:12:04;14.2;;;6.6;;
60718;SDS011;46567;51.660;5.824;2023-11-18T01:17:04;12.5;;;6.0;;
60718;SDS011;46567;51.660;5.824;2023-11-18T01:22:04;11.5;;;5.3;;
60718;SDS011;46567;51.660;5.824;2023-11-18T01:27:04;14.9;;;6.4;;
60718;SDS011;46567;51.660;5.824;2023-11-18T01:32:04;15.1;;;6.2;;
60718;SDS011;46567;51.660;5.824;2023-11-18T01:37:04;14.2;;;6.7;;
60718;SDS011;46567;51.660;5.824;2023-11-18T01:47:04;14.8;;;6.5;;
60718;SDS011;46567;51.660;5.824;2023-11-18T01:52:04;19.2;;;7.4;;
60718;SDS011;46567;51.660;5.824;2023-11-18T01:57:04;16.5;;;6.7;;
60718;SDS011;46567;51.660;5.824;2023-11-18T02:02:04;14.3;;;6.6;;
60718;SDS011;46567;51.660;5.824;2023-11-18T02:07:04;20.1;;;8.1;;
60718;SDS011;46567;51.660;5.824;2023-11-18T02:12:58;12.3;;;6.2;;
60718;SDS011;46567;51.660;5.824;2023-11-18T02:17:04;16.8;;;7.4;;
60718;SDS011;46567;51.660;5.824;2023-11-18T02:22:04;16.6;;;7.1;;
60718;SDS011;46567;51.660;5.824;2023-11-18T02:27:04;19.9;;;7.9;;
60718;SDS011;46567;51.660;5.824;2023-11-18T02:32:13;19.9;;;7.5;;
60718;SDS011;46567;51.660;5.824;2023-11-18T02:37:07;14.1;;;6.3;;
60718;SDS011;46567;51.660;5.824;2023-11-18T02:42:04;13.1;;;7.0;;
60718;SDS011;46567;51.660;5.824;2023-11-18T02:47:04;17.7;;;7.7;;
60718;SDS011;46567;51.660;5.824;2023-11-18T02:52:04;17.8;;;7.3;;
60718;SDS011;46567;51.660;5.824;2023-11-18T02:57:04;15.9;;;7.1;;
60718;SDS011;46567;51.660;5.824;2023-11-18T03:02:04;18.5;;;6.9;;
60718;SDS011;46567;51.660;5.824;2023-11-18T03:07:05;17.0;;;7.7;;
60718;SDS011;46567;51.660;5.824;2023-11-18T03:12:04;16.7;;;8.0;;
60718;SDS011;46567;51.660;5.824;2023-11-18T03:17:04;21.5;;;8.1;;
60718;SDS011;46567;51.660;5.824;2023-11-18T03:22:04;14.7;;;7.2;;
60718;SDS011;46567;51.660;5.824;2023-11-18T03:32:04;15.7;;;7.7;;
60718;SDS011;46567;51.660;5.824;2023-11-18T03:37:04;16.6;;;7.4;;
60718;SDS011;46567;51.660;5.824;2023-11-18T03:42:04;13.1;;;6.8;;
60718;SDS011;46567;51.660;5.824;2023-11-18T03:47:04;15.7;;;7.5;;
60718;SDS011;46567;51.660;5.824;2023-11-18T03:52:04;17.7;;;7.7;;
60718;SDS011;46567;51.660;5.824;2023-11-18T03:57:04;18.5;;;7.7;;
60718;SDS011;46567;51.660;5.824;2023-11-18T04:07:04;17.4;;;8.1;;
60718;SDS011;46567;51.660;5.824;2023-11-18T04:17:04;15.9;;;7.6;;
60718;SDS011;46567;51.660;5.824;2023-11-18T04:22:04;19.5;;;8.5;;
60718;SDS011;46567;51.660;5.824;2023-11-18T04:27:04;16.2;;;7.8;;
60718;SDS011;46567;51.660;5.824;2023-11-18T04:32:04;12.4;;;6.6;;
60718;SDS011;46567;51.660;5.824;2023-11-18T04:37:04;14.2;;;7.3;;
60718;SDS011;46567;51.660;5.824;2023-11-18T04:42:04;16.4;;;7.0;;
60718;SDS011;46567;51.660;5.824;2023-11-18T04:47:04;16.6;;;7.7;;
60718;SDS011;46567;51.660;5.824;2023-11-18T04:52:04;15.5;;;7.7;;
60718;SDS011;46567;51.660;5.824;2023-11-18T04:57:04;17.4;;;8.0;;
60718;SDS011;46567;51.660;5.824;2023-11-18T05:02:04;16.8;;;7.6;;
60718;SDS011;46567;51.660;5.824;2023-11-18T05:07:04;15.0;;;7.2;;
60718;SDS011;46567;51.660;5.824;2023-11-18T05:12:04;15.5;;;7.8;;
60718;SDS011;46567;51.660;5.824;2023-11-18T05:17:04;17.2;;;7.7;;
60718;SDS011;46567;51.660;5.824;2023-11-18T05:22:04;15.1;;;6.6;;
60718;SDS011;46567;51.660;5.824;2023-11-18T05:27:04;15.3;;;7.5;;
60718;SDS011;46567;51.660;5.824;2023-11-18T05:32:04;15.9;;;7.9;;
60718;SDS011;46567;51.660;5.824;2023-11-18T05:37:04;15.4;;;6.9;;
60718;SDS011;46567;51.660;5.824;2023-11-18T05:42:04;13.7;;;7.2;;
60718;SDS011;46567;51.660;5.824;2023-11-18T05:47:04;12.5;;;7.2;;
60718;SDS011;46567;51.660;5.824;2023-11-18T05:52:04;14.4;;;7.3;;
60718;SDS011;46567;51.660;5.824;2023-11-18T06:02:04;13.6;;;6.2;;
60718;SDS011;46567;51.660;5.824;2023-11-18T06:07:04;13.3;;;6.9;;
60718;SDS011;46567;51.660;5.824;2023-11-18T06:12:04;14.3;;;6.8;;
60718;SDS011;46567;51.660;5.824;2023-11-18T06:17:04;13.5;;;7.2;;
60718;SDS011;46567;51.660;5.824;2023-11-18T06:22:04;16.6;;;7.5;;
60718;SDS011;46567;51.660;5.824;2023-11-18T06:27:04;11.5;;;6.9;;
60718;SDS011;46567;51.660;5.824;2023-11-18T06:37:04;16.5;;;7.2;;
60718;SDS011;46567;51.660;5.824;2023-11-18T06:47:04;11.6;;;6.8;;
60718;SDS011;46567;51.660;5.824;2023-11-18T06:52:04;14.4;;;7.2;;
60718;SDS011;46567;51.660;5.824;2023-11-18T06:57:04;12.4;;;6.4;;
60718;SDS011;46567;51.660;5.824;2023-11-18T07:02:04;11.4;;;6.4;;
60718;SDS011;46567;51.660;5.824;2023-11-18T07:07:04;11.4;;;6.3;;
60718;SDS011;46567;51.660;5.824;2023-11-18T07:12:04;11.1;;;6.1;;
60718;SDS011;46567;51.660;5.824;2023-11-18T07:17:04;14.3;;;5.6;;
60718;SDS011;46567;51.660;5.824;2023-11-18T07:22:04;12.3;;;6.2;;
60718;SDS011;46567;51.660;5.824;2023-11-18T07:27:04;13.0;;;6.0;;
60718;SDS011;46567;51.660;5.824;2023-11-18T07:32:04;16.6;;;6.5;;
60718;SDS011;46567;51.660;5.824;2023-11-18T07:37:04;11.3;;;5.4;;
60718;SDS011;46567;51.660;5.824;2023-11-18T07:42:04;12.8;;;5.3;;
60718;SDS011;46567;51.660;5.824;2023-11-18T07:47:04;13.9;;;6.0;;
60718;SDS011;46567;51.660;5.824;2023-11-18T07:52:04;11.5;;;5.5;;
60718;SDS011;46567;51.660;5.824;2023-11-18T07:57:04;11.0;;;5.5;;
60718;SDS011;46567;51.660;5.824;2023-11-18T08:02:04;10.1;;;5.8;;
60718;SDS011;46567;51.660;5.824;2023-11-18T08:07:04;12.7;;;5.6;;
60718;SDS011;46567;51.660;5.824;2023-11-18T08:12:04;9.1;;;5.5;;
60718;SDS011;46567;51.660;5.824;2023-11-18T08:17:04;11.3;;;5.4;;
60718;SDS011;46567;51.660;5.824;2023-11-18T08:22:04;10.6;;;4.9;;
60718;SDS011;46567;51.660;5.824;2023-11-18T08:27:04;10.6;;;5.1;;
60718;SDS011;46567;51.660;5.824;2023-11-18T08:32:05;9.5;;;5.3;;
60718;SDS011;46567;51.660;5.824;2023-11-18T08:37:04;11.7;;;4.9;;
60718;SDS011;46567;51.660;5.824;2023-11-18T08:47:04;10.9;;;5.4;;
60718;SDS011;46567;51.660;5.824;2023-11-18T08:52:04;11.6;;;4.8;;
60718;SDS011;46567;51.660;5.824;2023-11-18T08:57:04;15.4;;;5.3;;
60718;SDS011;46567;51.660;5.824;2023-11-18T09:02:04;9.5;;;5.1;;
60718;SDS011;46567;51.660;5.824;2023-11-18T09:12:04;6.6;;;3.7;;
60718;SDS011;46567;51.660;5.824;2023-11-18T09:17:04;10.9;;;5.0;;
60718;SDS011;46567;51.660;5.824;2023-11-18T09:22:04;7.0;;;3.9;;
60718;SDS011;46567;51.660;5.824;2023-11-18T09:27:04;9.5;;;4.4;;
60718;SDS011;46567;51.660;5.824;2023-11-18T09:32:05;9.6;;;4.0;;
60718;SDS011;46567;51.660;5.824;2023-11-18T09:37:04;10.2;;;4.1;;
60718;SDS011;46567;51.660;5.824;2023-11-18T09:47:07;11.3;;;4.0;;
60718;SDS011;46567;51.660;5.824;2023-11-18T09:52:04;8.3;;;3.0;;
60718;SDS011;46567;51.660;5.824;2023-11-18T09:58:04;7.8;;;3.3;;
60718;SDS011;46567;51.660;5.824;2023-11-18T10:02:04;5.8;;;3.3;;
60718;SDS011;46567;51.660;5.824;2023-11-18T10:07:05;5.1;;;2.8;;
60718;SDS011;46567;51.660;5.824;2023-11-18T10:12:04;5.6;;;2.7;;
60718;SDS011;46567;51.660;5.824;2023-11-18T10:17:04;6.1;;;3.1;;
60718;SDS011;46567;51.660;5.824;2023-11-18T10:22:04;5.4;;;2.7;;
60718;SDS011;46567;51.660;5.824;2023-11-18T10:27:04;6.6;;;2.8;;
60718;SDS011;46567;51.660;5.824;2023-11-18T10:32:04;4.7;;;2.8;;
60718;SDS011;46567;51.660;5.824;2023-11-18T10:37:04;7.9;;;2.5;;
60718;SDS011;46567;51.660;5.824;2023-11-18T10:42:04;6.4;;;2.6;;
60718;SDS011;46567;51.660;5.824;2023-11-18T10:47:04;6.9;;;2.9;;
60718;SDS011;46567;51.660;5.824;2023-11-18T10:52:04;5.0;;;2.4;;
60718;SDS011;46567;51.660;5.824;2023-11-18T10:57:04;4.6;;;2.2;;
60718;SDS011;46567;51.660;5.824;2023-11-18T11:07:04;4.1;;;2.4;;
60718;SDS011;46567;51.660;5.824;2023-11-18T11:12:13;5.3;;;2.5;;
60718;SDS011;46567;51.660;5.824;2023-11-18T11:17:05;6.2;;;2.9;;
60718;SDS011;46567;51.660;5.824;2023-11-18T11:22:07;5.7;;;2.7;;
60718;SDS011;46567;51.660;5.824;2023-11-18T11:28:59;5.6;;;2.3;;
60718;SDS011;46567;51.660;5.824;2023-11-18T11:34:19;6.1;;;2.8;;
60718;SDS011;46567;51.660;5.824;2023-11-18T11:37:11;5.9;;;2.4;;
60718;SDS011;46567;51.660;5.824;2023-11-18T11:42:04;4.9;;;2.6;;
60718;SDS011;46567;51.660;5.824;2023-11-18T11:47:04;5.3;;;3.7;;
60718;SDS011;46567;51.660;5.824;2023-11-18T11:52:32;7.7;;;3.6;;
60718;SDS011;46567;51.660;5.824;2023-11-18T11:57:04;4.9;;;2.5;;
60718;SDS011;46567;51.660;5.824;2023-11-18T12:02:04;6.5;;;3.0;;
60718;SDS011;46567;51.660;5.824;2023-11-18T12:12:04;4.8;;;2.6;;
60718;SDS011;46567;51.660;5.824;2023-11-18T12:17:09;4.5;;;2.7;;
60718;SDS011;46567;51.660;5.824;2023-11-18T12:22:04;3.6;;;2.0;;
60718;SDS011;46567;51.660;5.824;2023-11-18T12:27:04;4.1;;;2.1;;
60718;SDS011;46567;51.660;5.824;2023-11-18T12:32:04;4.5;;;2.2;;
60718;SDS011;46567;51.660;5.824;2023-11-18T12:40:21;5.7;;;2.6;;
60718;SDS011;46567;51.660;5.824;2023-11-18T12:42:08;5.9;;;2.7;;
60718;SDS011;46567;51.660;5.824;2023-11-18T12:47:33;5.7;;;2.8;;
60718;SDS011;46567;51.660;5.824;2023-11-18T12:52:04;4.1;;;2.1;;
60718;SDS011;46567;51.660;5.824;2023-11-18T12:57:04;5.5;;;2.3;;
60718;SDS011;46567;51.660;5.824;2023-11-18T13:07:04;3.1;;;1.5;;
60718;SDS011;46567;51.660;5.824;2023-11-18T13:12:04;4.1;;;1.3;;
60718;SDS011;46567;51.660;5.824;2023-11-18T13:17:05;3.9;;;1.3;;
60718;SDS011;46567;51.660;5.824;2023-11-18T13:22:17;2.6;;;1.0;;
60718;SDS011;46567;51.660;5.824;2023-11-18T13:27:04;3.0;;;1.0;;
60718;SDS011;46567;51.660;5.824;2023-11-18T13:32:04;1.7;;;1.3;;
60718;SDS011;46567;51.660;5.824;2023-11-18T13:42:17;2.1;;;1.6;;
60718;SDS011;46567;51.660;5.824;2023-11-18T13:47:04;2.1;;;1.2;;
60718;SDS011;46567;51.660;5.824;2023-11-18T13:52:04;1.6;;;1.1;;
60718;SDS011;46567;51.660;5.824;2023-11-18T13:57:04;1.7;;;0.8;;
60718;SDS011;46567;51.660;5.824;2023-11-18T14:02:04;2.7;;;1.1;;
60718;SDS011;46567;51.660;5.824;2023-11-18T14:07:04;3.2;;;1.9;;
60718;SDS011;46567;51.660;5.824;2023-11-18T14:12:04;5.9;;;3.4;;
60718;SDS011;46567;51.660;5.824;2023-11-18T14:17:04;16.6;;;6.3;;
60718;SDS011;46567;51.660;5.824;2023-11-18T14:22:04;2.4;;;1.5;;
60718;SDS011;46567;51.660;5.824;2023-11-18T14:27:04;2.7;;;1.7;;
60718;SDS011;46567;51.660;5.824;2023-11-18T14:32:04;1.8;;;1.6;;
60718;SDS011;46567;51.660;5.824;2023-11-18T14:37:04;1.8;;;0.9;;
60718;SDS011;46567;51.660;5.824;2023-11-18T14:42:04;1.2;;;0.8;;
60718;SDS011;46567;51.660;5.824;2023-11-18T14:47:04;2.2;;;1.1;;
60718;SDS011;46567;51.660;5.824;2023-11-18T14:52:04;1.8;;;1.1;;
60718;SDS011;46567;51.660;5.824;2023-11-18T14:57:04;1.5;;;1.0;;
60718;SDS011;46567;51.660;5.824;2023-11-18T15:07:04;10.0;;;4.4;;
60718;SDS011;46567;51.660;5.824;2023-11-18T15:12:04;2.3;;;1.5;;
60718;SDS011;46567;51.660;5.824;2023-11-18T15:17:04;2.6;;;2.0;;
60718;SDS011;46567;51.660;5.824;2023-11-18T15:22:04;4.1;;;1.4;;
60718;SDS011;46567;51.660;5.824;2023-11-18T15:27:04;1.6;;;1.2;;
60718;SDS011;46567;51.660;5.824;2023-11-18T15:32:04;2.3;;;1.0;;
60718;SDS011;46567;51.660;5.824;2023-11-18T15:37:04;1.2;;;1.1;;
60718;SDS011;46567;51.660;5.824;2023-11-18T15:42:04;2.3;;;1.6;;
60718;SDS011;46567;51.660;5.824;2023-11-18T15:47:04;1.3;;;1.1;;
60718;SDS011;46567;51.660;5.824;2023-11-18T16:02:04;1.1;;;1.0;;
60718;SDS011;46567;51.660;5.824;2023-11-18T16:07:04;2.5;;;2.0;;
60718;SDS011;46567;51.660;5.824;2023-11-18T16:17:04;6.1;;;3.0;;
60718;SDS011;46567;51.660;5.824;2023-11-18T16:22:04;2.9;;;2.6;;
60718;SDS011;46567;51.660;5.824;2023-11-18T16:27:04;4.5;;;3.7;;
60718;SDS011;46567;51.660;5.824;2023-11-18T16:32:05;5.4;;;4.1;;
60718;SDS011;46567;51.660;5.824;2023-11-18T16:37:04;2.4;;;2.0;;
60718;SDS011;46567;51.660;5.824;2023-11-18T16:42:04;3.5;;;2.4;;
60718;SDS011;46567;51.660;5.824;2023-11-18T16:47:04;2.2;;;1.8;;
60718;SDS011;46567;51.660;5.824;2023-11-18T16:52:04;9.1;;;4.1;;
60718;SDS011;46567;51.660;5.824;2023-11-18T16:57:04;13.0;;;7.1;;
60718;SDS011;46567;51.660;5.824;2023-11-18T17:02:04;3.1;;;2.3;;
60718;SDS011;46567;51.660;5.824;2023-11-18T17:07:04;3.9;;;2.7;;
60718;SDS011;46567;51.660;5.824;2023-11-18T17:12:04;1.5;;;1.1;;
60718;SDS011;46567;51.660;5.824;2023-11-18T17:17:04;2.7;;;2.2;;
60718;SDS011;46567;51.660;5.824;2023-11-18T17:22:04;3.4;;;2.7;;
60718;SDS011;46567;51.660;5.824;2023-11-18T17:27:04;0.8;;;0.8;;
60718;SDS011;46567;51.660;5.824;2023-11-18T17:32:04;1.0;;;0.7;;
60718;SDS011;46567;51.660;5.824;2023-11-18T17:37:04;0.8;;;0.7;;
60718;SDS011;46567;51.660;5.824;2023-11-18T17:42:04;0.7;;;0.7;;
60718;SDS011;46567;51.660;5.824;2023-11-18T17:47:04;0.8;;;0.8;;
60718;SDS011;46567;51.660;5.824;2023-11-18T17:52:05;1.2;;;1.0;;
60718;SDS011;46567;51.660;5.824;2023-11-18T17:57:04;2.1;;;1.2;;
60718;SDS011;46567;51.660;5.824;2023-11-18T18:02:04;1.2;;;0.9;;
60718;SDS011;46567;51.660;5.824;2023-11-18T18:07:04;2.8;;;1.4;;
60718;SDS011;46567;51.660;5.824;2023-11-18T18:12:04;2.1;;;1.6;;
60718;SDS011;46567;51.660;5.824;2023-11-18T18:17:04;7.4;;;4.7;;
60718;SDS011;46567;51.660;5.824;2023-11-18T18:22:04;3.1;;;1.7;;
60718;SDS011;46567;51.660;5.824;2023-11-18T18:27:04;1.8;;;1.4;;
60718;SDS011;46567;51.660;5.824;2023-11-18T18:32:05;1.2;;;1.0;;
60718;SDS011;46567;51.660;5.824;2023-11-18T18:37:04;1.2;;;1.0;;
60718;SDS011;46567;51.660;5.824;2023-11-18T18:42:04;1.7;;;1.2;;
60718;SDS011;46567;51.660;5.824;2023-11-18T18:47:04;2.1;;;1.5;;
60718;SDS011;46567;51.660;5.824;2023-11-18T18:57:04;3.1;;;1.8;;
60718;SDS011;46567;51.660;5.824;2023-11-18T19:02:04;2.7;;;1.6;;
60718;SDS011;46567;51.660;5.824;2023-11-18T19:07:04;3.6;;;1.3;;
60718;SDS011;46567;51.660;5.824;2023-11-18T19:12:04;1.4;;;1.2;;
60718;SDS011;46567;51.660;5.824;2023-11-18T19:17:04;1.4;;;1.3;;
60718;SDS011;46567;51.660;5.824;2023-11-18T19:22:04;1.5;;;1.3;;
60718;SDS011;46567;51.660;5.824;2023-11-18T19:32:04;7.7;;;2.5;;
60718;SDS011;46567;51.660;5.824;2023-11-18T19:37:04;7.5;;;2.8;;
60718;SDS011;46567;51.660;5.824;2023-11-18T19:42:04;3.2;;;1.8;;
60718;SDS011;46567;51.660;5.824;2023-11-18T19:47:05;2.0;;;1.8;;
60718;SDS011;46567;51.660;5.824;2023-11-18T19:52:04;1.9;;;1.7;;
60718;SDS011;46567;51.660;5.824;2023-11-18T19:57:04;2.1;;;1.4;;
60718;SDS011;46567;51.660;5.824;2023-11-18T20:02:04;2.0;;;1.8;;
60718;SDS011;46567;51.660;5.824;2023-11-18T20:07:04;2.0;;;1.8;;
60718;SDS011;46567;51.660;5.824;2023-11-18T20:12:04;1.5;;;1.4;;
60718;SDS011;46567;51.660;5.824;2023-11-18T20:17:04;2.1;;;1.5;;
60718;SDS011;46567;51.660;5.824;2023-11-18T20:27:04;3.4;;;1.4;;
60718;SDS011;46567;51.660;5.824;2023-11-18T20:32:04;2.2;;;1.6;;
60718;SDS011;46567;51.660;5.824;2023-11-18T20:37:04;1.9;;;1.6;;
60718;SDS011;46567;51.660;5.824;2023-11-18T20:42:04;2.9;;;1.5;;
60718;SDS011;46567;51.660;5.824;2023-11-18T20:47:04;2.4;;;1.6;;
60718;SDS011;46567;51.660;5.824;2023-11-18T20:52:04;1.8;;;1.7;;
60718;SDS011;46567;51.660;5.824;2023-11-18T20:57:04;2.8;;;2.2;;
60718;SDS011;46567;51.660;5.824;2023-11-18T21:02:04;2.2;;;2.0;;
60718;SDS011;46567;51.660;5.824;2023-11-18T21:12:04;3.0;;;2.4;;
60718;SDS011;46567;51.660;5.824;2023-11-18T21:17:04;2.6;;;2.2;;
60718;SDS011;46567;51.660;5.824;2023-11-18T21:32:04;3.7;;;2.6;;
60718;SDS011;46567;51.660;5.824;2023-11-18T21:37:04;4.5;;;2.7;;
60718;SDS011;46567;51.660;5.824;2023-11-18T21:42:04;7.7;;;2.5;;
60718;SDS011;46567;51.660;5.824;2023-11-18T21:47:04;2.7;;;2.4;;
60718;SDS011;46567;51.660;5.824;2023-11-18T21:52:04;3.3;;;2.9;;
60718;SDS011;46567;51.660;5.824;2023-11-18T21:57:04;3.6;;;2.6;;
60718;SDS011;46567;51.660;5.824;2023-11-18T22:02:04;2.7;;;2.3;;
60718;SDS011;46567;51.660;5.824;2023-11-18T22:07:04;4.1;;;3.2;;
60718;SDS011;46567;51.660;5.824;2023-11-18T22:12:04;3.3;;;2.6;;
60718;SDS011;46567;51.660;5.824;2023-11-18T22:17:04;3.3;;;2.7;;
60718;SDS011;46567;51.660;5.824;2023-11-18T22:22:04;4.1;;;2.4;;
60718;SDS011;46567;51.660;5.824;2023-11-18T22:27:04;3.2;;;2.8;;
60718;SDS011;46567;51.660;5.824;2023-11-18T22:32:04;3.9;;;3.0;;
60718;SDS011;46567;51.660;5.824;2023-11-18T22:37:05;4.2;;;2.9;;
60718;SDS011;46567;51.660;5.824;2023-11-18T22:42:05;5.4;;;3.2;;
60718;SDS011;46567;51.660;5.824;2023-11-18T22:47:04;3.4;;;2.6;;
60718;SDS011;46567;51.660;5.824;2023-11-18T22:52:04;2.6;;;2.2;;
60718;SDS011;46567;51.660;5.824;2023-11-18T22:57:04;3.8;;;2.4;;
60718;SDS011;46567;51.660;5.824;2023-11-18T23:02:49;3.3;;;2.4;;
60718;SDS011;46567;51.660;5.824;2023-11-18T23:09:20;2.8;;;2.4;;
60718;SDS011;46567;51.660;5.824;2023-11-18T23:12:05;3.6;;;2.6;;
60718;SDS011;46567;51.660;5.824;2023-11-18T23:17:04;2.8;;;2.5;;
60718;SDS011;46567;51.660;5.824;2023-11-18T23:22:04;3.3;;;2.7;;
60718;SDS011;46567;51.660;5.824;2023-11-18T23:27:04;5.1;;;2.7;;
60718;SDS011;46567;51.660;5.824;2023-11-18T23:32:04;3.8;;;2.8;;
60718;SDS011;46567;51.660;5.824;2023-11-18T23:37:04;4.5;;;3.0;;
60718;SDS011;46567;51.660;5.824;2023-11-18T23:42:05;3.1;;;2.6;;
60718;SDS011;46567;51.660;5.824;2023-11-18T23:47:04;5.5;;;2.9;;
60718;SDS011;46567;51.660;5.824;2023-11-18T23:52:05;4.5;;;3.1;;
60718;SDS011;46567;51.660;5.824;2023-11-18T23:57:04;3.6;;;2.6;;
